Dupont, CO (80024)

12:31 PM MDT on July 25, 2016 (GMT -0600)
Derby | | Change Station

Elev 5138 ft 39.84 °N, 104.92 °W | Updated 1 minute ago

Scattered Clouds
Scattered Clouds
84.2 °F
Feels Like 84 °F
N
3.0
Wind Variable Wind from NNW
Gusts 3.0 mph

Today
High -- | Low -- °F
--% Chance of Precip.
Yesterday
High -- | Low -- °F
Precip. -- in
Pressure 30.22 in
Visibility 30.0 miles
Clouds Few 12000 ft
Scattered Clouds 25000 ft
Heat Index 84 °F
Dew Point 58 °F
Humidity 41%
Rainfall 0.00 in
Snow Depth Not available.
5:52 AM 8:19 PM
Waning Gibbous, 63% visible
METAR KBJC 251749Z 06004KT 30SM FEW120 SCT250 27/11 A3022
Pressure 30.22 in
Visibility 30.0 miles
Clouds Few 12000 ft
Scattered Clouds 25000 ft
Heat Index 84 °F
Dew Point 58 °F
Humidity 41%
Rainfall 0.00 in
Snow Depth Not available.
5:52 AM 8:19 PM
Waning Gibbous, 63% visible
METAR KBJC 251749Z 06004KT 30SM FEW120 SCT250 27/11 A3022

10-Day Weather Forecast

Almanac

Astronomy

Jul. 25, 2016 Rise Set
Actual Time
Civil Twilight
Nautical Twilight
Astronomical Twilight
Moon
Length of Visible Light
Length of Day
Tomorrow will be .
, % of the Moon is Illuminated

Today's Extremes

State Highs State Lows

Community

WunderPhotos

Upload Photos

1,927,368 photos uploaded!

WunderBlog® & News

Nearby

Air Quality

  Air Quality AQ Index Pollutant
Not available.

Snow Depth

Station Depth Elevation

Earthquake Activity

City Distance Mag. Time & Date
Minimum magnitude displayed is 2.5.

Coastal Water Temperatures

Place Temperature

Stations

Nearby Weather Stations

Station Location Temp. Windchill Dew Point Humidity Wind Precip. Elev Updated Type
                   

Watches & Warnings

There are currently no watches in effect.